Time;durP1;ratioP1;P1;durP2;ratioP2;P2;SDS_P1;SDS_P2;PMS_P1;PMS_P2;Temp;Humidity;BMP_temperature;BMP_pressure;BME280_temperature;BME280_humidity;BME280_pressure;Samples;Min_cycle;Max_cycle;Signal;HPM_P1;HPM_P2
2022/09/08 00:12:18;;;;;;;9.03;3.90;;;;;;;12.86;65.62;100820.44;31465189;28;20053;-73
2022/09/08 00:27:20;;;;;;;7.50;3.87;;;;;;;12.75;69.05;100806.25;31467842;28;20076;-72
2022/09/08 00:42:22;;;;;;;4.53;3.40;;;;;;;12.64;70.67;100790.84;31472307;28;20091;-73
2022/09/08 00:57:24;;;;;;;7.57;3.90;;;;;;;12.43;74.15;100796.66;31463646;28;20072;-73
2022/09/08 01:12:45;;;;;;;5.30;3.50;;;;;;;12.23;79.52;100803.97;31471090;28;20072;-74
2022/09/08 01:27:51;;;;;;;6.97;3.43;;;;;;;11.95;81.82;100811.38;31467839;28;20471;-74
2022/09/08 01:42:53;;;;;;;6.53;2.50;;;;;;;12.12;76.58;100797.91;31460050;28;20095;-73
2022/09/08 01:57:55;;;;;;;6.13;2.10;;;;;;;12.20;71.56;100783.03;31465554;28;20048;-73
2022/09/08 02:12:57;;;;;;;5.63;1.80;;;;;;;12.23;68.61;100793.09;31460182;28;20080;-73
2022/09/08 02:27:59;;;;;;;3.10;2.20;;;;;;;12.14;66.44;100773.78;31457023;28;20130;-73
2022/09/08 02:43:01;;;;;;;3.57;1.87;;;;;;;12.05;66.30;100771.56;31458832;28;20084;-74
2022/09/08 02:58:03;;;;;;;6.03;1.80;;;;;;;11.98;66.98;100771.69;31456406;28;20530;-74
2022/09/08 03:13:06;;;;;;;3.33;1.50;;;;;;;11.85;66.31;100768.75;31473311;28;20514;-73
2022/09/08 03:28:15;;;;;;;3.93;2.13;;;;;;;11.82;65.87;100763.38;31481558;28;20074;-73
2022/09/08 03:43:16;;;;;;;3.63;1.73;;;;;;;11.84;66.04;100763.72;31481104;28;20083;-73
2022/09/08 03:58:18;;;;;;;3.97;2.10;;;;;;;11.86;65.61;100759.41;31469046;28;20493;-76
2022/09/08 04:13:20;;;;;;;3.50;2.10;;;;;;;12.00;64.94;100763.13;31474703;28;20079;-73
2022/09/08 04:28:22;;;;;;;6.03;1.90;;;;;;;12.52;64.18;100761.47;31474083;28;20091;-75
2022/09/08 04:43:24;;;;;;;6.53;2.00;;;;;;;13.39;62.82;100777.81;31469212;28;20454;-72
2022/09/08 04:58:28;;;;;;;3.60;1.87;;;;;;;13.78;62.47;100787.88;31466929;28;20052;-73
2022/09/08 05:13:30;;;;;;;3.80;2.10;;;;;;;14.98;61.82;100795.13;31471030;28;20426;-74
2022/09/08 05:28:38;;;;;;;5.50;2.80;;;;;;;16.09;59.73;100800.94;31460610;28;20048;-73
2022/09/08 05:43:43;;;;;;;4.83;2.80;;;;;;;17.04;58.56;100789.56;31463903;28;20056;-73
2022/09/08 05:58:53;;;;;;;8.40;2.83;;;;;;;18.18;55.05;100792.78;31475883;28;20052;-74
2022/09/08 06:13:59;;;;;;;7.57;3.40;;;;;;;19.35;51.38;100804.34;31463599;28;20059;-74
2022/09/08 06:29:17;;;;;;;11.80;4.65;;;;;;;20.46;46.24;100803.47;31475666;28;20168;-75
2022/09/08 06:44:22;;;;;;;11.10;4.68;;;;;;;21.42;44.07;100815.88;31472278;28;20053;-76
2022/09/08 07:00:29;;;;;;;8.48;4.10;;;;;;;22.13;43.20;100794.66;31461936;28;20053;-77
2022/09/08 07:15:46;;;;;;;5.63;2.92;;;;;;;22.85;39.80;100799.63;31398900;28;20394;-73
2022/09/08 07:30:56;;;;;;;4.93;2.58;;;;;;;23.57;35.85;100802.34;31451572;28;20410;-76
2022/09/08 07:46:13;;;;;;;10.38;2.47;;;;;;;24.51;34.22;100791.13;31465123;28;20060;-75
2022/09/08 08:01:30;;;;;;;5.80;2.92;;;;;;;25.32;32.00;100779.22;31474629;28;20501;-74
2022/09/08 08:16:56;;;;;;;3.90;2.90;;;;;;;24.97;30.25;100767.81;31492143;28;20110;-75
2022/09/08 08:32:09;;;;;;;8.38;3.72;;;;;;;25.85;29.62;100760.75;31488101;28;20068;-74
2022/09/08 08:48:08;;;;;;;8.32;2.50;;;;;;;26.50;28.42;100757.53;31460858;28;20050;-85
2022/09/08 09:03:29;;;;;;;6.50;3.28;;;;;;;26.81;25.65;100745.97;31486510;28;20045;-77
2022/09/08 09:19:18;;;;;;;7.28;3.60;;;;;;;25.83;25.68;100744.59;31479234;28;20041;-77
2022/09/08 09:34:38;;;;;;;6.67;3.57;;;;;;;25.83;26.17;100738.25;31469800;28;20075;-83
2022/09/08 09:50:16;;;;;;;6.03;3.03;;;;;;;27.01;25.23;100730.94;31480760;28;20460;-73
2022/09/08 10:22:06;;;;;;;9.05;4.32;;;;;;;26.96;24.62;100728.94;31465823;28;20113;-80
2022/09/08 10:37:23;;;;;;;4.57;2.70;;;;;;;28.08;25.10;100717.53;31475102;28;20048;-82
2022/09/08 10:52:30;;;;;;;3.47;2.25;;;;;;;28.16;24.00;100724.00;31482552;28;20057;-80
2022/09/08 11:07:59;;;;;;;5.97;2.47;;;;;;;27.14;24.66;100713.63;31471112;28;20068;-81
2022/09/08 11:23:25;;;;;;;4.95;2.03;;;;;;;25.31;27.74;100711.00;31460012;28;20060;-80
2022/09/08 11:38:51;;;;;;;5.18;3.42;;;;;;;24.17;29.46;100711.75;31484883;28;20062;-83
2022/09/08 11:53:57;;;;;;;6.75;3.55;;;;;;;25.59;27.46;100701.88;31494441;28;20056;-84
2022/09/08 12:09:22;;;;;;;4.22;2.90;;;;;;;24.28;29.46;100700.72;31511139;28;20055;-82
2022/09/08 12:24:46;;;;;;;5.03;2.17;;;;;;;23.12;30.45;100693.94;31486154;28;20490;-82
2022/09/08 12:40:46;;;;;;;3.67;2.03;;;;;;;22.58;32.29;100687.34;31477011;28;20139;-79
2022/09/08 12:56:12;;;;;;;3.97;1.90;;;;;;;22.09;32.34;100689.81;31500010;28;20052;-84
2022/09/08 13:11:51;;;;;;;4.18;1.77;;;;;;;21.82;33.12;100690.16;31475647;28;20480;-80
2022/09/08 13:26:53;;;;;;;4.45;2.83;;;;;;;21.48;33.79;100682.66;31487772;28;20068;-83
2022/09/08 13:42:04;;;;;;;4.00;2.10;;;;;;;21.31;34.42;100674.09;31484916;28;20064;-78
2022/09/08 13:57:58;;;;;;;7.05;2.92;;;;;;;20.98;35.37;100674.28;31489148;28;20041;-81
2022/09/08 14:13:21;;;;;;;2.80;1.55;;;;;;;20.98;35.47;100668.78;31400131;28;20048;-80
2022/09/08 14:28:27;;;;;;;4.47;2.30;;;;;;;20.74;36.89;100675.16;31467233;28;20102;-88
2022/09/08 14:43:47;;;;;;;3.15;1.65;;;;;;;20.42;37.70;100684.31;31479169;28;20064;-81
2022/09/08 14:58:55;;;;;;;6.30;2.65;;;;;;;20.07;37.95;100684.84;31479788;28;20617;-83
2022/09/08 15:14:23;;;;;;;12.75;4.40;;;;;;;20.04;39.36;100674.00;31485522;28;20537;-85
2022/09/08 15:29:32;;;;;;;6.05;2.65;;;;;;;19.78;38.95;100678.44;31528882;28;20059;-79
2022/09/08 15:44:33;;;;;;;6.65;1.90;;;;;;;19.40;39.97;100661.28;31511395;28;20048;-76
2022/09/08 16:00:02;;;;;;;7.45;2.08;;;;;;;19.25;42.47;100657.69;31487110;28;20117;-80
2022/09/08 16:15:14;;;;;;;4.40;2.50;;;;;;;18.98;42.78;100649.53;31472659;28;20061;-82
2022/09/08 16:30:51;;;;;;;8.00;2.88;;;;;;;18.84;44.45;100652.94;31517082;28;20047;-79
2022/09/08 16:46:09;;;;;;;6.97;3.35;;;;;;;18.89;43.19;100660.56;31501411;28;20048;-81
2022/09/08 17:01:28;;;;;;;10.70;3.60;;;;;;;18.74;42.66;100672.19;31468807;28;20067;-80
2022/09/08 17:17:01;;;;;;;8.07;2.47;;;;;;;18.43;43.75;100682.56;31518855;28;20103;-85
2022/09/08 17:32:11;;;;;;;7.55;2.50;;;;;;;18.08;43.47;100687.59;31503880;28;20059;-81
2022/09/08 17:47:34;;;;;;;5.53;2.63;;;;;;;18.01;43.28;100694.13;31473969;28;20399;-80
2022/09/08 18:03:04;;;;;;;3.45;1.88;;;;;;;17.97;43.23;100693.50;31463301;28;20056;-80
2022/09/08 18:18:31;;;;;;;7.25;3.00;;;;;;;17.85;43.15;100691.66;31477629;28;20139;-81
2022/09/08 18:34:13;;;;;;;6.60;2.50;;;;;;;17.64;43.89;100692.47;31486073;28;20106;-82
2022/09/08 18:49:33;;;;;;;5.00;2.85;;;;;;;17.57;46.55;100699.00;31467479;28;20057;-79
2022/09/08 19:04:58;;;;;;;8.00;2.40;;;;;;;17.65;44.81;100688.53;31461761;28;21035;-80
2022/09/08 19:20:15;;;;;;;5.75;2.72;;;;;;;17.54;44.82;100688.94;31451820;28;20063;-79
2022/09/08 19:35:34;;;;;;;8.35;3.00;;;;;;;17.33;46.91;100696.00;31461321;28;20150;-80
2022/09/08 19:51:00;;;;;;;8.07;3.35;;;;;;;17.28;46.66;100713.03;31451399;28;20470;-80
2022/09/08 20:06:31;;;;;;;5.07;3.00;;;;;;;17.23;46.86;100704.66;31483362;28;20064;-80
2022/09/08 20:21:50;;;;;;;4.75;2.88;;;;;;;17.08;54.08;100711.88;31460576;28;20139;-78
2022/09/08 20:37:27;;;;;;;8.38;3.38;;;;;;;16.88;61.62;100714.94;31466390;28;20053;-78
2022/09/08 20:52:29;;;;;;;8.25;3.10;;;;;;;16.84;59.87;100708.81;31457058;28;20080;-79
2022/09/08 21:07:34;;;;;;;8.02;3.65;;;;;;;16.63;63.23;100704.81;31474984;28;20043;-78
2022/09/08 21:22:41;;;;;;;6.40;2.90;;;;;;;16.30;66.00;100687.94;31466377;28;20154;-79
2022/09/08 21:37:57;;;;;;;5.83;3.37;;;;;;;16.11;67.74;100680.78;31478941;28;20478;-78
2022/09/08 21:53:23;;;;;;;14.00;5.53;;;;;;;16.10;67.62;100679.22;31475495;28;20071;-78
2022/09/08 22:08:26;;;;;;;8.50;5.00;;;;;;;16.17;64.90;100674.28;31464219;28;20067;-78
2022/09/08 22:23:37;;;;;;;15.25;6.18;;;;;;;16.32;64.66;100685.53;31460144;28;20056;-79
2022/09/08 22:38:59;;;;;;;10.05;4.90;;;;;;;16.34;62.65;100669.41;31473496;28;20117;-78
2022/09/08 22:54:01;;;;;;;11.73;5.17;;;;;;;16.36;61.60;100665.03;31461615;28;20056;-77
2022/09/08 23:09:12;;;;;;;11.98;5.50;;;;;;;16.30;63.80;100649.59;31462922;28;20060;-78
2022/09/08 23:24:20;;;;;;;9.17;6.17;;;;;;;15.95;67.26;100624.19;31455404;28;20057;-77
2022/09/08 23:39:52;;;;;;;12.30;5.20;;;;;;;15.64;69.54;100640.44;31514378;28;20052;-78
2022/09/08 23:54:57;;;;;;;11.52;5.57;;;;;;;15.35;70.01;100659.72;31483237;28;20060;-78
